createdAt,value
2019-05-13T00:01:28.926Z,1.57
2019-05-13T00:03:04.097Z,1.30
2019-05-13T00:04:38.647Z,1.40
2019-05-13T00:06:13.512Z,1.40
2019-05-13T00:07:48.118Z,1.70
2019-05-13T00:09:24.483Z,1.47
2019-05-13T00:10:59.310Z,1.60
2019-05-13T00:12:35.524Z,1.50
2019-05-13T00:14:10.230Z,1.50
2019-05-13T00:15:45.058Z,1.43
2019-05-13T00:17:19.640Z,1.60
2019-05-13T00:18:54.412Z,1.30
2019-05-13T00:20:29.045Z,1.40
2019-05-13T00:22:04.091Z,1.50
2019-05-13T00:23:38.795Z,1.43
2019-05-13T00:25:14.582Z,1.50
2019-05-13T00:26:49.394Z,1.47
2019-05-13T00:28:24.410Z,1.30
2019-05-13T00:29:58.963Z,1.60
2019-05-13T00:31:34.046Z,1.30
2019-05-13T00:33:08.617Z,1.57
2019-05-13T00:34:44.503Z,1.10
2019-05-13T00:36:19.832Z,1.30
2019-05-13T00:37:54.873Z,1.13
2019-05-13T00:39:29.755Z,1.40
2019-05-13T00:41:04.530Z,1.15
2019-05-13T00:42:39.145Z,1.47
2019-05-13T00:44:14.323Z,1.40
2019-05-13T00:45:49.343Z,1.52
2019-05-13T00:47:24.161Z,1.20
2019-05-13T00:48:58.711Z,1.25
2019-05-13T00:50:33.847Z,1.90
2019-05-13T00:52:08.439Z,1.20
2019-05-13T00:53:44.190Z,1.05
2019-05-13T00:55:19.022Z,1.60
2019-05-13T00:56:54.804Z,1.22
2019-05-13T00:58:29.488Z,1.50
2019-05-13T01:00:04.739Z,1.40
2019-05-13T01:01:39.290Z,1.30
2019-05-13T01:03:14.615Z,1.10
2019-05-13T01:04:49.474Z,1.40
2019-05-13T01:06:24.646Z,1.40
2019-05-13T01:07:59.840Z,1.27
2019-05-13T01:09:34.967Z,1.30
2019-05-13T01:11:09.507Z,1.20
2019-05-13T01:12:44.925Z,1.80
2019-05-13T01:14:19.497Z,1.30
2019-05-13T01:15:54.544Z,1.50
2019-05-13T01:17:29.179Z,1.30
2019-05-13T01:19:04.290Z,1.60
2019-05-13T01:20:39.475Z,1.35
2019-05-13T01:22:14.360Z,2.00
2019-05-13T01:23:54.226Z,1.45
2019-05-13T01:25:29.130Z,1.65
2019-05-13T01:27:04.185Z,1.37
2019-05-13T01:28:39.503Z,1.60
2019-05-13T01:30:14.682Z,1.40
2019-05-13T01:31:49.430Z,1.27
2019-05-13T01:33:24.467Z,1.42
2019-05-13T01:34:59.251Z,1.50
2019-05-13T01:36:34.246Z,1.50
2019-05-13T01:38:09.163Z,1.25
2019-05-13T01:39:43.971Z,1.20
2019-05-13T01:41:18.988Z,1.30
2019-05-13T01:42:54.185Z,1.60
2019-05-13T01:44:29.467Z,1.70
2019-05-13T01:46:04.657Z,1.95
2019-05-13T01:47:39.839Z,1.30
2019-05-13T01:49:14.763Z,1.70
2019-05-13T01:50:49.578Z,1.55
2019-05-13T01:52:24.181Z,1.72
2019-05-13T01:53:58.922Z,1.40
2019-05-13T01:55:34.090Z,1.70
2019-05-13T01:57:09.220Z,1.55
2019-05-13T01:58:44.974Z,1.90
2019-05-13T02:00:20.275Z,1.52
2019-05-13T02:01:54.838Z,1.70
2019-05-13T02:03:29.590Z,1.70
2019-05-13T02:05:04.337Z,1.47
2019-05-13T02:06:39.188Z,1.42
2019-05-13T02:08:14.449Z,1.60
2019-05-13T02:09:49.606Z,1.77
2019-05-13T02:11:24.722Z,1.30
2019-05-13T02:12:59.454Z,1.60
2019-05-13T02:14:34.281Z,1.70
2019-05-13T02:16:09.361Z,1.60
2019-05-13T02:17:44.718Z,1.80
2019-05-13T02:19:20.047Z,1.47
2019-05-13T02:20:56.065Z,2.00
2019-05-13T02:22:33.564Z,1.50
2019-05-13T02:24:07.555Z,1.60
2019-05-13T02:25:43.605Z,1.70
2019-05-13T02:27:18.305Z,1.82
2019-05-13T02:28:54.087Z,1.57
2019-05-13T02:30:29.114Z,1.40
2019-05-13T02:32:03.918Z,1.82
2019-05-13T02:33:38.581Z,1.60
2019-05-13T02:35:14.199Z,1.60
2019-05-13T02:36:52.816Z,2.15
2019-05-13T02:38:30.642Z,1.80
2019-05-13T02:40:04.648Z,2.00
2019-05-13T02:41:42.890Z,1.42
2019-05-13T02:43:15.845Z,1.70
2019-05-13T02:44:52.974Z,1.92
2019-05-13T02:46:27.258Z,1.82
2019-05-13T02:48:03.214Z,2.10
2019-05-13T02:49:38.267Z,1.57
2019-05-13T02:51:13.445Z,2.02
2019-05-13T02:52:48.371Z,1.70
2019-05-13T02:54:23.472Z,1.60
2019-05-13T02:55:58.020Z,1.40
2019-05-13T02:57:33.007Z,2.02
2019-05-13T02:59:07.791Z,1.52
2019-05-13T03:00:44.197Z,1.72
2019-05-13T03:02:19.100Z,1.90
2019-05-13T03:03:53.860Z,1.70
2019-05-13T03:05:28.563Z,1.72
2019-05-13T03:07:03.635Z,1.98
2019-05-13T03:08:46.213Z,2.20
2019-05-13T03:10:15.552Z,1.95
2019-05-13T03:11:53.615Z,1.92
2019-05-13T03:13:27.039Z,1.92
2019-05-13T03:15:02.732Z,1.92
2019-05-13T03:16:55.919Z,2.12
2019-05-13T03:18:33.442Z,2.35
2019-05-13T03:20:11.636Z,2.65
2019-05-13T03:21:43.946Z,2.27
2019-05-13T03:23:18.568Z,2.60
2019-05-13T03:24:53.373Z,2.60
2019-05-13T03:26:28.235Z,2.20
2019-05-13T03:28:03.604Z,1.92
2019-05-13T03:29:38.308Z,1.95
2019-05-13T03:31:16.846Z,2.22
2019-05-13T03:32:55.256Z,2.05
2019-05-13T03:34:27.295Z,2.10
2019-05-13T03:36:06.715Z,2.10
2019-05-13T03:37:42.330Z,2.35
2019-05-13T03:39:17.084Z,2.47
2019-05-13T03:40:54.874Z,2.17
2019-05-13T03:42:33.545Z,2.15
2019-05-13T03:44:13.592Z,2.35
2019-05-13T03:45:52.579Z,3.50
2019-05-13T03:47:28.790Z,3.15
2019-05-13T03:49:04.377Z,3.10
2019-05-13T03:50:39.177Z,2.30
2019-05-13T03:52:13.857Z,2.08
2019-05-13T03:53:53.212Z,2.30
2019-05-13T03:55:26.738Z,2.20
2019-05-13T03:57:03.523Z,2.12
2019-05-13T03:58:38.372Z,1.75
2019-05-13T04:00:13.550Z,1.98
2019-05-13T04:01:48.448Z,1.98
2019-05-13T04:03:23.271Z,2.10
2019-05-13T04:04:59.113Z,1.90
2019-05-13T04:06:34.826Z,2.12
2019-05-13T04:08:12.976Z,2.40
2019-05-13T04:09:46.039Z,2.00
2019-05-13T04:11:22.663Z,2.22
2019-05-13T04:12:57.643Z,1.90
2019-05-13T04:14:33.680Z,2.27
2019-05-13T04:16:08.682Z,1.82
2019-05-13T04:17:43.253Z,2.30
2019-05-13T04:19:18.354Z,2.37
2019-05-13T04:20:53.388Z,2.10
2019-05-13T04:22:28.547Z,2.72
2019-05-13T04:24:04.204Z,2.47
2019-05-13T04:25:43.619Z,2.30
2019-05-13T04:27:15.861Z,2.22
2019-05-13T04:28:52.612Z,1.90
2019-05-13T04:30:27.555Z,2.02
2019-05-13T04:32:02.611Z,2.10
2019-05-13T04:33:37.615Z,2.42
2019-05-13T04:35:12.596Z,2.08
2019-05-13T04:36:47.382Z,2.20
2019-05-13T04:38:23.011Z,2.08
2019-05-13T04:39:57.840Z,2.35
2019-05-13T04:41:33.356Z,2.27
2019-05-13T04:43:08.274Z,2.27
2019-05-13T04:44:43.439Z,2.45
2019-05-13T04:46:18.134Z,2.22
2019-05-13T04:47:53.269Z,2.40
2019-05-13T04:49:28.311Z,2.10
2019-05-13T04:51:03.457Z,2.50
2019-05-13T04:52:38.122Z,2.20
2019-05-13T04:54:13.462Z,2.55
2019-05-13T04:55:48.011Z,2.25
2019-05-13T04:57:22.917Z,2.17
2019-05-13T04:58:57.571Z,2.15
2019-05-13T05:01:08.966Z,2.05
2019-05-13T05:02:56.469Z,2.42
2019-05-13T05:04:44.880Z,2.20
2019-05-13T05:06:42.560Z,2.60
2019-05-13T05:08:53.800Z,2.50
2019-05-13T05:11:02.516Z,1.98
2019-05-13T05:13:02.941Z,2.00
2019-05-13T05:15:03.102Z,2.20
2019-05-13T05:17:03.261Z,2.02
2019-05-13T05:19:08.891Z,2.05
2019-05-13T05:20:55.500Z,2.30
2019-05-13T05:22:39.439Z,2.60
2019-05-13T05:24:52.057Z,2.08
2019-05-13T05:26:52.199Z,2.50
2019-05-13T05:29:05.575Z,2.23
2019-05-13T05:31:06.321Z,2.00
2019-05-13T05:32:53.053Z,1.85
2019-05-13T05:35:01.239Z,2.22
2019-05-13T05:37:02.124Z,2.52
2019-05-13T05:38:51.614Z,2.37
2019-05-13T05:40:32.348Z,2.07
2019-05-13T05:42:07.785Z,2.30
2019-05-13T05:43:45.431Z,2.00
2019-05-13T05:45:22.100Z,1.70
2019-05-13T05:47:02.584Z,2.03
2019-05-13T05:48:41.989Z,2.03
2019-05-13T05:50:16.513Z,2.20
2019-05-13T05:51:54.078Z,2.10
2019-05-13T05:53:31.903Z,1.97
2019-05-13T05:55:07.479Z,1.70
2019-05-13T05:56:42.316Z,2.30
2019-05-13T05:58:18.774Z,1.90
2019-05-13T05:59:56.073Z,1.57
2019-05-13T06:01:33.203Z,2.07
2019-05-13T06:03:07.580Z,1.70
2019-05-13T06:04:43.338Z,2.20
2019-05-13T06:06:22.747Z,1.90
2019-05-13T06:07:57.503Z,1.90
2019-05-13T06:09:32.476Z,2.00
2019-05-13T06:11:07.875Z,2.17
2019-05-13T06:12:43.282Z,1.70
2019-05-13T06:14:18.896Z,1.70
2019-05-13T06:15:53.719Z,2.07
2019-05-13T06:17:28.747Z,2.10
2019-05-13T06:19:03.724Z,1.90
2019-05-13T06:20:38.546Z,1.90
2019-05-13T06:22:13.213Z,1.87
2019-05-13T06:23:48.030Z,1.80
2019-05-13T06:25:23.562Z,1.90
2019-05-13T06:27:01.290Z,2.27
2019-05-13T06:28:35.276Z,2.00
2019-05-13T06:30:12.558Z,2.43
2019-05-13T06:31:46.744Z,2.00
2019-05-13T06:33:21.686Z,2.60
2019-05-13T06:34:56.436Z,2.60
2019-05-13T06:36:31.980Z,2.30
2019-05-13T06:38:07.310Z,2.57
2019-05-13T06:39:42.753Z,2.40
2019-05-13T06:41:17.967Z,2.17
2019-05-13T06:42:53.149Z,2.00
2019-05-13T06:44:28.340Z,2.23
2019-05-13T06:46:03.579Z,2.30
2019-05-13T06:47:41.176Z,1.97
2019-05-13T06:49:15.621Z,2.43
2019-05-13T06:50:52.135Z,2.23
2019-05-13T06:52:27.418Z,2.33
2019-05-13T06:54:02.683Z,2.13
2019-05-13T06:55:38.116Z,2.23
2019-05-13T06:57:13.694Z,2.00
2019-05-13T06:58:51.814Z,2.50
2019-05-13T07:00:26.680Z,2.17
2019-05-13T07:02:02.400Z,2.03
2019-05-13T07:03:37.741Z,2.17
2019-05-13T07:05:13.561Z,2.17
2019-05-13T07:06:51.475Z,1.87
2019-05-13T07:08:25.650Z,2.37
2019-05-13T07:10:02.447Z,2.10
2019-05-13T07:11:38.042Z,2.30
2019-05-13T07:13:13.237Z,2.13
2019-05-13T07:14:48.501Z,2.10
2019-05-13T07:16:23.756Z,2.57
2019-05-13T07:17:58.929Z,2.00
2019-05-13T07:19:34.396Z,2.43
2019-05-13T07:21:11.862Z,2.10
2019-05-13T07:22:46.742Z,2.40
2019-05-13T07:24:22.669Z,2.20
2019-05-13T07:25:57.835Z,2.50
2019-05-13T07:27:33.041Z,1.90
2019-05-13T07:29:08.613Z,1.80
2019-05-13T07:30:46.462Z,2.27
2019-05-13T07:32:22.212Z,2.63
2019-05-13T07:33:57.481Z,2.20
2019-05-13T07:35:37.829Z,2.40
2019-05-13T07:37:11.362Z,2.20
2019-05-13T07:38:47.342Z,2.10
2019-05-13T07:40:22.518Z,2.37
2019-05-13T07:41:57.994Z,2.10
2019-05-13T07:43:33.946Z,2.60
2019-05-13T07:45:11.484Z,2.20
2019-05-13T07:46:46.373Z,2.70
2019-05-13T07:48:27.663Z,2.30
2019-05-13T07:49:58.786Z,2.50
2019-05-13T07:51:34.351Z,2.53
2019-05-13T07:53:12.210Z,2.50
2019-05-13T07:54:46.407Z,2.60
2019-05-13T07:56:21.999Z,2.43
2019-05-13T07:57:57.257Z,2.40
2019-05-13T07:59:32.497Z,2.33
2019-05-13T08:01:07.733Z,2.27
2019-05-13T08:02:43.214Z,2.47
2019-05-13T08:04:22.721Z,2.43
2019-05-13T08:05:55.511Z,2.70
2019-05-13T08:07:31.673Z,2.30
2019-05-13T08:09:12.543Z,2.30
2019-05-13T08:10:46.909Z,2.10
2019-05-13T08:12:22.063Z,2.40
2019-05-13T08:13:57.483Z,2.63
2019-05-13T08:15:32.689Z,2.70
2019-05-13T08:17:07.921Z,2.60
2019-05-13T08:18:43.873Z,2.37
2019-05-13T08:20:22.102Z,2.80
2019-05-13T08:21:56.740Z,2.87
2019-05-13T08:23:32.514Z,2.60
2019-05-13T08:25:07.980Z,2.50
2019-05-13T08:26:47.609Z,2.80
2019-05-13T08:28:22.394Z,2.33
2019-05-13T08:29:57.079Z,2.70
2019-05-13T08:31:32.437Z,2.80
2019-05-13T08:33:07.773Z,3.00
2019-05-13T08:34:43.015Z,2.33
2019-05-13T08:36:18.694Z,2.50
2019-05-13T08:37:53.855Z,2.57
2019-05-13T08:39:35.767Z,2.70
2019-05-13T08:41:09.798Z,2.60
2019-05-13T08:42:43.086Z,2.57
2019-05-13T08:44:18.532Z,2.43
2019-05-13T08:45:55.801Z,2.20
2019-05-13T08:47:31.402Z,2.50
2019-05-13T08:49:06.716Z,2.47
2019-05-13T08:50:42.094Z,2.60
2019-05-13T08:52:17.155Z,2.43
2019-05-13T08:53:52.179Z,2.53
2019-05-13T08:55:26.732Z,2.53
2019-05-13T08:57:03.028Z,2.70
2019-05-13T08:58:38.133Z,2.40
2019-05-13T09:00:15.379Z,2.37
2019-05-13T09:01:51.950Z,2.37
2019-05-13T09:03:26.898Z,1.90
2019-05-13T09:05:02.318Z,2.30
2019-05-13T09:06:37.972Z,2.10
2019-05-13T09:08:13.352Z,2.37
2019-05-13T09:09:48.091Z,2.60
2019-05-13T09:11:22.978Z,2.70
2019-05-13T09:12:57.958Z,2.10
2019-05-13T09:14:32.807Z,2.40
2019-05-13T09:16:08.501Z,2.30
2019-05-13T09:17:43.668Z,2.67
2019-05-13T09:19:18.478Z,2.47
2019-05-13T09:20:53.026Z,2.40
2019-05-13T09:22:28.064Z,2.57
2019-05-13T09:24:02.685Z,2.20
2019-05-13T09:25:37.555Z,2.43
2019-05-13T09:27:12.285Z,2.40
2019-05-13T09:28:47.128Z,2.50
2019-05-13T09:30:22.332Z,2.40
2019-05-13T09:31:57.228Z,1.83
2019-05-13T09:33:32.809Z,2.40
2019-05-13T09:35:07.823Z,2.50
2019-05-13T09:36:42.378Z,2.30
2019-05-13T09:38:17.182Z,2.60
2019-05-13T09:39:52.194Z,2.17
2019-05-13T09:41:26.973Z,1.73
2019-05-13T09:43:02.534Z,2.00
2019-05-13T09:44:37.708Z,2.30
2019-05-13T09:46:12.662Z,2.63
2019-05-13T09:47:47.496Z,1.80
2019-05-13T09:49:23.682Z,1.67
2019-05-13T09:50:58.839Z,1.70
2019-05-13T09:52:33.463Z,1.40
2019-05-13T09:54:08.233Z,1.80
2019-05-13T09:55:43.177Z,1.90
2019-05-13T09:57:18.027Z,1.60
2019-05-13T09:58:52.833Z,1.60
2019-05-13T10:00:28.233Z,1.80
2019-05-13T10:02:03.551Z,1.30
2019-05-13T10:03:53.158Z,1.70
2019-05-13T10:05:15.420Z,1.67
2019-05-13T10:06:50.271Z,1.97
2019-05-13T10:08:24.826Z,1.80
2019-05-13T10:10:01.604Z,1.80
2019-05-13T10:11:36.380Z,2.03
2019-05-13T10:13:15.403Z,1.80
2019-05-13T10:14:49.288Z,1.77
2019-05-13T10:16:24.904Z,1.77
2019-05-13T10:18:01.809Z,2.00
2019-05-13T10:19:36.414Z,1.67
2019-05-13T10:21:11.231Z,1.60
2019-05-13T10:22:46.116Z,1.50
2019-05-13T10:24:22.192Z,1.70
2019-05-13T10:26:03.759Z,1.70
2019-05-13T10:27:41.326Z,1.70
2019-05-13T10:29:16.695Z,1.87
2019-05-13T10:30:53.047Z,1.60
2019-05-13T10:32:29.487Z,1.53
2019-05-13T10:34:05.916Z,2.00
2019-05-13T10:35:44.220Z,1.73
2019-05-13T10:37:22.066Z,1.60
2019-05-13T10:38:56.223Z,1.77
2019-05-13T10:40:32.711Z,1.97
2019-05-13T10:42:07.735Z,1.90
2019-05-13T10:44:30.999Z,1.60
2019-05-13T10:46:06.647Z,1.40
2019-05-13T10:47:42.442Z,1.70
2019-05-13T10:49:17.788Z,1.97
2019-05-13T10:50:53.185Z,1.50
2019-05-13T10:52:28.457Z,1.80
2019-05-13T10:54:02.983Z,1.40
2019-05-13T10:55:38.331Z,1.37
2019-05-13T10:57:13.616Z,1.53
2019-05-13T10:58:48.874Z,1.57
2019-05-13T11:00:37.947Z,1.63
2019-05-13T11:02:13.639Z,1.30
2019-05-13T11:03:52.135Z,1.60
2019-05-13T11:05:26.436Z,1.70
2019-05-13T11:07:02.893Z,1.43
2019-05-13T11:08:38.985Z,1.73
2019-05-13T11:10:14.155Z,1.97
2019-05-13T11:11:49.162Z,1.80
2019-05-13T11:13:24.664Z,1.83
2019-05-13T11:15:02.431Z,1.80
2019-05-13T11:16:36.716Z,1.50
2019-05-13T11:18:18.813Z,1.80
2019-05-13T11:19:49.787Z,1.47
2019-05-13T11:21:25.581Z,1.50
2019-05-13T11:23:01.922Z,1.77
2019-05-13T11:24:36.654Z,1.80
2019-05-13T11:26:12.873Z,1.57
2019-05-13T11:27:47.864Z,1.50
2019-05-13T11:29:22.991Z,1.70
2019-05-13T11:30:59.856Z,1.67
2019-05-13T11:32:35.835Z,1.60
2019-05-13T11:34:11.225Z,1.87
2019-05-13T11:35:46.644Z,1.90
2019-05-13T11:37:23.119Z,2.10
2019-05-13T11:38:58.425Z,1.70
2019-05-13T11:40:33.850Z,1.40
2019-05-13T11:42:08.577Z,1.67
2019-05-13T11:43:43.896Z,1.60
2019-05-13T11:45:19.168Z,1.70
2019-05-13T11:46:54.690Z,1.50
2019-05-13T11:48:32.259Z,1.93
2019-05-13T11:50:07.696Z,1.60
2019-05-13T11:51:42.809Z,1.70
2019-05-13T11:53:37.447Z,1.30
2019-05-13T11:54:55.161Z,1.33
2019-05-13T11:56:33.638Z,1.40
2019-05-13T11:58:07.521Z,1.40
2019-05-13T11:59:43.252Z,1.50
2019-05-13T12:01:17.734Z,1.47
2019-05-13T12:02:54.683Z,1.40
2019-05-13T12:04:29.446Z,1.93
2019-05-13T12:06:05.517Z,1.40
2019-05-13T12:07:42.050Z,1.50
2019-05-13T12:09:17.625Z,1.60
2019-05-13T12:10:52.650Z,1.50
2019-05-13T12:12:33.656Z,1.93
2019-05-13T12:14:05.037Z,1.63
2019-05-13T12:15:48.844Z,1.67
2019-05-13T12:17:16.618Z,1.47
2019-05-13T12:18:52.871Z,1.60
2019-05-13T12:20:27.965Z,1.77
2019-05-13T12:22:03.531Z,1.53
2019-05-13T12:23:38.123Z,1.37
2019-05-13T12:25:14.055Z,1.10
2019-05-13T12:26:48.608Z,1.23
2019-05-13T12:28:23.609Z,1.20
2019-05-13T12:29:58.092Z,1.30
2019-05-13T12:31:33.827Z,1.33
2019-05-13T12:33:08.384Z,1.37
2019-05-13T12:34:45.923Z,1.37
2019-05-13T12:36:23.461Z,1.20
2019-05-13T12:37:57.421Z,1.30
2019-05-13T12:39:32.534Z,1.57
2019-05-13T12:41:07.580Z,1.43
2019-05-13T12:42:46.863Z,1.60
2019-05-13T12:44:22.287Z,1.37
2019-05-13T12:45:55.463Z,1.50
2019-05-13T12:47:30.562Z,1.30
2019-05-13T12:49:05.288Z,1.30
2019-05-13T12:50:43.206Z,1.50
2019-05-13T12:52:17.092Z,1.47
2019-05-13T12:53:52.953Z,1.33
2019-05-13T12:55:27.782Z,1.30
2019-05-13T12:57:03.673Z,1.20
2019-05-13T12:58:38.454Z,1.37
2019-05-13T13:00:13.699Z,1.60
2019-05-13T13:01:48.521Z,1.53
2019-05-13T13:03:24.491Z,1.63
2019-05-13T13:05:13.339Z,1.30
2019-05-13T13:06:41.580Z,1.40
2019-05-13T13:08:29.000Z,1.67
2019-05-13T13:09:53.638Z,1.50
2019-05-13T13:11:28.680Z,1.50
2019-05-13T13:13:04.554Z,1.40
2019-05-13T13:14:39.848Z,1.47
2019-05-13T13:16:16.466Z,1.50
2019-05-13T13:17:53.924Z,1.50
2019-05-13T13:19:28.575Z,1.47
2019-05-13T13:21:07.390Z,1.30
2019-05-13T13:22:40.993Z,1.47
2019-05-13T13:24:16.099Z,1.70
2019-05-13T13:25:54.210Z,1.47
2019-05-13T13:27:57.730Z,1.57
2019-05-13T13:29:05.070Z,1.80
2019-05-13T13:30:39.586Z,1.20
2019-05-13T13:32:14.853Z,1.60
2019-05-13T13:33:53.938Z,1.77
2019-05-13T13:35:26.219Z,1.50
2019-05-13T13:37:04.700Z,1.50
2019-05-13T13:38:37.365Z,3.80
2019-05-13T13:40:13.052Z,1.80
2019-05-13T13:41:48.590Z,1.40
2019-05-13T13:43:25.221Z,1.47
2019-05-13T13:45:06.239Z,1.43
2019-05-13T13:46:43.123Z,1.60
2019-05-13T13:48:13.793Z,1.33
2019-05-13T13:49:48.542Z,1.90
2019-05-13T13:51:26.605Z,1.33
2019-05-13T13:53:00.215Z,1.40
2019-05-13T13:54:37.282Z,1.53
2019-05-13T13:56:14.517Z,1.77
2019-05-13T13:57:48.791Z,1.60
2019-05-13T13:59:25.035Z,8.70
2019-05-13T14:01:10.550Z,2.70
2019-05-13T14:02:37.397Z,1.37
2019-05-13T14:04:16.544Z,1.60
2019-05-13T14:05:52.590Z,1.30
2019-05-13T14:07:34.831Z,1.20
2019-05-13T14:09:04.317Z,1.30
2019-05-13T14:10:41.868Z,1.53
2019-05-13T14:12:16.385Z,2.30
2019-05-13T14:13:52.166Z,1.97
2019-05-13T14:15:30.860Z,1.50
2019-05-13T14:17:04.292Z,1.33
2019-05-13T14:18:41.721Z,1.47
2019-05-13T14:20:17.304Z,1.50
2019-05-13T14:21:52.785Z,1.50
2019-05-13T14:23:28.638Z,1.90
2019-05-13T14:25:04.064Z,1.63
2019-05-13T14:26:39.595Z,1.52
2019-05-13T14:28:17.486Z,1.93
2019-05-13T14:29:52.640Z,1.40
2019-05-13T14:31:27.635Z,1.67
2019-05-13T14:33:03.194Z,1.40
2019-05-13T14:34:38.276Z,1.30
2019-05-13T14:36:13.786Z,1.60
2019-05-13T14:37:48.582Z,1.20
2019-05-13T14:39:24.424Z,1.57
2019-05-13T14:41:01.602Z,1.50
2019-05-13T14:42:35.953Z,1.50
2019-05-13T14:44:12.493Z,1.57
2019-05-13T14:45:47.232Z,1.20
2019-05-13T14:47:21.914Z,1.30
2019-05-13T14:48:57.307Z,1.30
2019-05-13T14:50:32.040Z,1.30
2019-05-13T14:52:07.598Z,1.20
2019-05-13T14:53:42.634Z,1.10
2019-05-13T14:55:18.324Z,1.20
2019-05-13T14:56:53.151Z,1.60
2019-05-13T14:58:28.717Z,1.30
2019-05-13T15:00:03.604Z,1.40
2019-05-13T15:01:41.364Z,1.40
2019-05-13T15:03:15.763Z,1.50
2019-05-13T15:04:52.370Z,1.40
2019-05-13T15:06:27.330Z,1.30
2019-05-13T15:08:03.174Z,1.47
2019-05-13T15:09:37.979Z,1.03
2019-05-13T15:11:14.000Z,1.30
2019-05-13T15:12:48.816Z,1.27
2019-05-13T15:14:24.717Z,1.23
2019-05-13T15:15:59.505Z,1.07
2019-05-13T15:17:35.649Z,1.10
2019-05-13T15:19:11.993Z,1.17
2019-05-13T15:20:47.795Z,1.30
2019-05-13T15:22:22.958Z,1.07
2019-05-13T15:23:58.493Z,1.20
2019-05-13T15:25:33.360Z,1.40
2019-05-13T15:27:09.297Z,1.10
2019-05-13T15:28:44.097Z,1.07
2019-05-13T15:30:21.852Z,1.40
2019-05-13T15:31:56.350Z,1.20
2019-05-13T15:33:32.861Z,1.20
2019-05-13T15:35:12.545Z,1.40
2019-05-13T15:36:45.665Z,1.30
2019-05-13T15:38:20.838Z,1.20
2019-05-13T15:39:56.375Z,1.43
2019-05-13T15:41:31.611Z,1.40
2019-05-13T15:43:07.161Z,1.40
2019-05-13T15:44:41.953Z,1.20
2019-05-13T15:46:17.570Z,1.10
2019-05-13T15:47:52.370Z,1.40
2019-05-13T15:49:27.901Z,1.77
2019-05-13T15:51:02.780Z,1.27
2019-05-13T15:52:38.861Z,1.20
2019-05-13T15:54:15.571Z,1.40
2019-05-13T15:55:51.779Z,1.27
2019-05-13T15:57:26.760Z,1.13
2019-05-13T15:59:02.934Z,1.20
2019-05-13T16:00:37.804Z,1.20
2019-05-13T16:02:13.334Z,1.33
2019-05-13T16:03:48.210Z,1.03
2019-05-13T16:05:24.095Z,1.23
2019-05-13T16:07:01.476Z,1.00
2019-05-13T16:08:36.510Z,1.13
2019-05-13T16:10:11.587Z,1.30
2019-05-13T16:11:47.221Z,1.60
2019-05-13T16:13:22.408Z,1.50
2019-05-13T16:14:58.261Z,1.40
2019-05-13T16:16:33.494Z,1.03
2019-05-13T16:18:11.145Z,1.13
2019-05-13T16:19:45.588Z,1.20
2019-05-13T16:21:21.167Z,1.10
2019-05-13T16:22:55.575Z,1.20
2019-05-13T16:24:32.162Z,1.43
2019-05-13T16:26:06.986Z,1.27
2019-05-13T16:27:42.114Z,1.20
2019-05-13T16:29:16.488Z,1.30
2019-05-13T16:30:51.675Z,1.20
2019-05-13T16:32:26.487Z,1.57
2019-05-13T16:34:01.851Z,1.60
2019-05-13T16:35:36.695Z,1.53
2019-05-13T16:37:11.979Z,1.30
2019-05-13T16:38:46.503Z,1.30
2019-05-13T16:40:22.347Z,1.37
2019-05-13T16:41:56.770Z,1.63
2019-05-13T16:43:32.177Z,1.37
2019-05-13T16:45:06.854Z,1.37
2019-05-13T16:46:42.610Z,1.50
2019-05-13T16:48:17.198Z,1.30
2019-05-13T16:49:52.204Z,1.37
2019-05-13T16:51:26.671Z,1.40
2019-05-13T16:53:02.006Z,1.37
2019-05-13T16:54:36.563Z,1.40
2019-05-13T16:56:25.699Z,1.57
2019-05-13T16:57:47.626Z,1.33
2019-05-13T16:59:22.582Z,1.40
2019-05-13T17:00:57.320Z,1.57
2019-05-13T17:02:32.397Z,1.37
2019-05-13T17:04:06.766Z,1.60
2019-05-13T17:05:42.080Z,1.37
2019-05-13T17:07:16.542Z,1.70
2019-05-13T17:08:51.749Z,1.30
2019-05-13T17:10:26.511Z,1.33
2019-05-13T17:12:01.588Z,1.50
2019-05-13T17:13:36.322Z,1.53
2019-05-13T17:15:11.528Z,1.53
2019-05-13T17:16:45.960Z,1.60
2019-05-13T17:18:21.981Z,1.50
2019-05-13T17:19:56.553Z,1.50
2019-05-13T17:21:31.735Z,1.60
2019-05-13T17:23:06.633Z,2.00
2019-05-13T17:24:42.775Z,1.53
2019-05-13T17:26:17.765Z,1.40
2019-05-13T17:27:53.545Z,1.60
2019-05-13T17:29:28.384Z,1.43
2019-05-13T17:31:03.921Z,1.70
2019-05-13T17:32:38.717Z,1.40
2019-05-13T17:34:14.508Z,1.60
2019-05-13T17:35:49.335Z,1.37
2019-05-13T17:37:24.874Z,1.40
2019-05-13T17:39:01.800Z,1.20
2019-05-13T17:40:36.913Z,1.50
2019-05-13T17:42:12.368Z,1.30
2019-05-13T17:43:48.086Z,1.70
2019-05-13T17:45:23.024Z,1.77
2019-05-13T17:46:58.608Z,1.40
2019-05-13T17:48:33.421Z,1.67
2019-05-13T17:50:08.444Z,1.63
2019-05-13T17:51:42.927Z,1.57
2019-05-13T17:53:17.903Z,1.80
2019-05-13T17:54:52.551Z,1.40
2019-05-13T17:56:27.787Z,1.67
2019-05-13T17:58:02.505Z,1.60
2019-05-13T17:59:37.737Z,1.70
2019-05-13T18:01:12.196Z,1.50
2019-05-13T18:02:47.191Z,1.50
2019-05-13T18:04:22.591Z,1.80
2019-05-13T18:05:57.827Z,1.67
2019-05-13T18:07:32.250Z,2.17
2019-05-13T18:09:08.236Z,1.50
2019-05-13T18:10:42.608Z,1.90
2019-05-13T18:12:17.563Z,1.57
2019-05-13T18:13:52.035Z,1.63
2019-05-13T18:15:27.304Z,1.60
2019-05-13T18:17:02.316Z,1.40
2019-05-13T18:18:43.978Z,1.60
2019-05-13T18:20:14.456Z,1.33
2019-05-13T18:21:51.508Z,1.67
2019-05-13T18:23:25.729Z,1.40
2019-05-13T18:25:02.558Z,1.50
2019-05-13T18:26:37.203Z,1.40
2019-05-13T18:28:27.121Z,1.23
2019-05-13T18:29:48.270Z,1.70
2019-05-13T18:31:24.797Z,1.67
2019-05-13T18:33:01.218Z,1.63
2019-05-13T18:34:36.602Z,1.60
2019-05-13T18:36:11.998Z,1.63
2019-05-13T18:37:47.203Z,1.70
2019-05-13T18:39:21.712Z,1.90
2019-05-13T18:40:56.687Z,1.60
2019-05-13T18:42:31.765Z,1.80
2019-05-13T18:44:06.978Z,1.60
2019-05-13T18:45:41.990Z,1.53
2019-05-13T18:47:17.046Z,1.80
2019-05-13T18:48:58.652Z,1.73
2019-05-13T18:50:28.465Z,1.83
2019-05-13T18:52:02.866Z,1.70
2019-05-13T18:53:38.116Z,1.67
2019-05-13T18:55:14.244Z,1.60
2019-05-13T18:56:49.216Z,1.60
2019-05-13T18:58:23.653Z,1.83
2019-05-13T19:00:18.002Z,2.10
2019-05-13T19:01:52.982Z,1.70
2019-05-13T19:03:27.885Z,1.93
2019-05-13T19:05:02.647Z,2.07
2019-05-13T19:06:37.819Z,1.90
2019-05-13T19:08:12.622Z,1.90
2019-05-13T19:09:47.394Z,2.13
2019-05-13T19:11:22.432Z,2.07
2019-05-13T19:12:57.904Z,2.10
2019-05-13T19:14:32.739Z,2.10
2019-05-13T19:16:07.802Z,2.50
2019-05-13T19:17:42.379Z,2.00
2019-05-13T19:19:20.091Z,2.17
2019-05-13T19:20:53.426Z,2.40
2019-05-13T19:22:28.213Z,2.03
2019-05-13T19:24:03.342Z,1.93
2019-05-13T19:25:39.984Z,2.40
2019-05-13T19:27:14.632Z,2.37
2019-05-13T19:28:51.465Z,2.00
2019-05-13T19:30:25.716Z,2.03
2019-05-13T19:32:01.734Z,2.20
2019-05-13T19:33:36.639Z,2.37
2019-05-13T19:35:11.860Z,2.33
2019-05-13T19:36:46.618Z,3.03
2019-05-13T19:38:21.358Z,2.43
2019-05-13T19:39:55.932Z,2.40
2019-05-13T19:41:31.498Z,2.27
2019-05-13T19:43:06.595Z,2.57
2019-05-13T19:44:42.093Z,2.47
2019-05-13T19:46:16.905Z,2.30
2019-05-13T19:47:51.959Z,2.37
2019-05-13T19:49:32.712Z,2.37
2019-05-13T19:51:03.172Z,2.40
2019-05-13T19:52:37.990Z,2.73
2019-05-13T19:54:12.861Z,2.40
2019-05-13T19:55:47.415Z,2.70
2019-05-13T19:57:22.182Z,3.00
2019-05-13T19:58:57.062Z,2.63
2019-05-13T20:00:31.822Z,3.20
2019-05-13T20:02:06.362Z,2.80
2019-05-13T20:03:42.287Z,2.70
2019-05-13T20:05:20.523Z,2.90
2019-05-13T20:06:53.631Z,3.00
2019-05-13T20:08:28.592Z,2.87
2019-05-13T20:10:03.398Z,2.43
2019-05-13T20:11:37.970Z,2.43
2019-05-13T20:13:12.713Z,2.63
2019-05-13T20:14:47.275Z,2.70
2019-05-13T20:16:22.320Z,2.83
2019-05-13T20:17:56.964Z,2.97
2019-05-13T20:19:46.040Z,3.33
2019-05-13T20:21:10.484Z,3.50
2019-05-13T20:22:44.423Z,2.70
2019-05-13T20:24:19.246Z,2.60
2019-05-13T20:25:54.255Z,2.80
2019-05-13T20:27:28.890Z,2.73
2019-05-13T20:29:03.640Z,2.85
2019-05-13T20:30:38.224Z,2.67
2019-05-13T20:32:12.981Z,2.53
2019-05-13T20:33:47.542Z,2.12
2019-05-13T20:35:22.359Z,2.63
2019-05-13T20:36:57.210Z,2.90
2019-05-13T20:38:32.279Z,2.35
2019-05-13T20:40:07.418Z,2.37
2019-05-13T20:41:42.251Z,2.90
2019-05-13T20:43:16.827Z,2.83
2019-05-13T20:44:51.603Z,2.65
2019-05-13T20:46:26.176Z,3.17
2019-05-13T20:48:01.542Z,3.83
2019-05-13T20:49:36.234Z,4.15
2019-05-13T20:51:11.462Z,3.58
2019-05-13T20:52:46.619Z,2.83
2019-05-13T20:54:22.061Z,3.05
2019-05-13T20:55:56.780Z,2.98
2019-05-13T20:57:32.342Z,3.20
2019-05-13T20:59:07.380Z,3.30
2019-05-13T21:00:42.373Z,3.17
2019-05-13T21:02:16.946Z,3.42
2019-05-13T21:03:51.748Z,2.50
2019-05-13T21:05:26.490Z,2.70
2019-05-13T21:07:02.091Z,3.10
2019-05-13T21:08:37.006Z,3.00
2019-05-13T21:10:12.610Z,2.70
2019-05-13T21:11:47.251Z,2.83
2019-05-13T21:13:22.383Z,3.10
2019-05-13T21:14:56.952Z,3.25
2019-05-13T21:16:31.714Z,2.67
2019-05-13T21:18:06.363Z,3.23
2019-05-13T21:19:42.844Z,3.87
2019-05-13T21:21:17.516Z,2.80